Time;durP1;ratioP1;P1;durP2;ratioP2;P2;SDS_P1;SDS_P2;PMS_P1;PMS_P2;Temp;Humidity;BMP_temperature;BMP_pressure;BME280_temperature;BME280_humidity;BME280_pressure;Samples;Min_cycle;Max_cycle;Signal;HPM_P1;HPM_P2
2023/12/21 00:00:15;;;;;;;4.47;1.50;;;;;;;5.64;100.00;99652.03;5053841;28;20032;-63
2023/12/21 00:02:40;;;;;;;7.22;1.95;;;;;;;5.67;100.00;99645.13;5072182;28;20033;-63
2023/12/21 00:05:05;;;;;;;4.63;1.47;;;;;;;5.69;100.00;99635.59;5071737;28;20040;-62
2023/12/21 00:07:31;;;;;;;5.37;1.70;;;;;;;5.69;100.00;99630.38;5072113;28;20037;-63
2023/12/21 00:09:56;;;;;;;8.73;1.80;;;;;;;5.72;100.00;99623.56;5071053;28;20116;-62
2023/12/21 00:12:22;;;;;;;6.20;2.05;;;;;;;5.74;100.00;99620.97;5071639;28;20029;-63
2023/12/21 00:14:47;;;;;;;5.53;1.93;;;;;;;5.76;100.00;99604.50;5071651;28;20058;-63
2023/12/21 00:17:13;;;;;;;5.63;1.90;;;;;;;5.79;100.00;99598.47;5071521;28;20056;-63
2023/12/21 00:19:38;;;;;;;6.57;1.98;;;;;;;5.84;100.00;99596.94;5070826;28;20033;-63
2023/12/21 00:22:04;;;;;;;6.07;1.83;;;;;;;5.86;100.00;99577.84;5071102;28;20178;-63
2023/12/21 00:24:29;;;;;;;7.63;2.40;;;;;;;5.88;100.00;99581.44;5071056;28;20112;-63
2023/12/21 00:26:54;;;;;;;5.97;1.80;;;;;;;5.90;100.00;99579.78;5071338;28;20111;-62
2023/12/21 00:29:20;;;;;;;7.30;2.13;;;;;;;5.93;100.00;99571.16;5070573;28;20037;-62
2023/12/21 00:31:45;;;;;;;6.73;2.00;;;;;;;5.98;100.00;99567.00;5070831;28;20317;-66
2023/12/21 00:34:11;;;;;;;6.20;1.60;;;;;;;6.03;100.00;99557.59;5070925;28;20408;-63
2023/12/21 00:36:36;;;;;;;5.50;1.83;;;;;;;6.07;100.00;99538.50;5070814;28;20029;-63
2023/12/21 00:39:02;;;;;;;5.72;1.58;;;;;;;6.08;100.00;99520.25;5070033;28;20037;-63
2023/12/21 00:41:27;;;;;;;6.43;2.10;;;;;;;6.12;100.00;99534.34;5070831;28;20420;-62
2023/12/21 00:43:52;;;;;;;4.77;1.50;;;;;;;6.17;100.00;99516.22;5070995;28;20111;-62
2023/12/21 00:46:18;;;;;;;5.80;1.27;;;;;;;6.21;100.00;99529.50;5070914;28;20125;-62
2023/12/21 00:48:43;;;;;;;5.17;1.83;;;;;;;6.27;100.00;99518.31;5070409;28;20044;-63
2023/12/21 00:51:10;;;;;;;3.30;0.90;;;;;;;6.32;100.00;99509.78;5070604;28;20116;-62
2023/12/21 00:53:36;;;;;;;6.77;1.67;;;;;;;6.38;100.00;99511.75;5070427;28;20036;-63
2023/12/21 00:56:01;;;;;;;6.18;1.42;;;;;;;6.41;100.00;99485.66;5070638;28;20054;-63
2023/12/21 00:58:26;;;;;;;3.73;1.00;;;;;;;6.45;100.00;99498.06;5070322;28;20507;-62
2023/12/21 01:00:52;;;;;;;5.30;2.03;;;;;;;6.46;100.00;99503.34;5053488;28;20124;-62
2023/12/21 01:03:17;;;;;;;5.97;1.20;;;;;;;6.50;100.00;99500.00;5050067;28;20455;-63
2023/12/21 01:05:42;;;;;;;5.77;1.60;;;;;;;6.54;100.00;99487.00;5050460;28;20120;-63
2023/12/21 01:08:08;;;;;;;6.25;1.38;;;;;;;6.59;100.00;99469.69;5050659;28;20504;-63
2023/12/21 01:10:33;;;;;;;3.93;1.00;;;;;;;6.64;100.00;99463.78;5050113;28;20029;-63
2023/12/21 01:12:59;;;;;;;4.20;1.00;;;;;;;6.68;100.00;99468.31;5050069;28;20106;-63
2023/12/21 01:15:24;;;;;;;4.30;0.90;;;;;;;6.78;100.00;99459.03;5050456;28;20045;-63
2023/12/21 01:17:50;;;;;;;5.22;1.30;;;;;;;6.84;100.00;99464.50;5050390;28;20467;-63
2023/12/21 01:20:16;;;;;;;2.30;0.40;;;;;;;6.89;100.00;99453.31;5050785;28;20039;-62
2023/12/21 01:22:41;;;;;;;7.40;1.02;;;;;;;6.91;100.00;99449.00;5050293;28;20037;-63
2023/12/21 01:25:07;;;;;;;3.40;0.83;;;;;;;6.94;100.00;99454.38;5050207;28;20036;-62
2023/12/21 01:27:32;;;;;;;3.47;0.83;;;;;;;6.96;100.00;99453.53;5050847;28;20086;-62
2023/12/21 01:29:57;;;;;;;4.33;0.80;;;;;;;6.98;100.00;99454.47;5049997;28;20045;-63
2023/12/21 01:32:23;;;;;;;4.33;0.90;;;;;;;7.00;100.00;99451.06;5050465;28;20081;-63
2023/12/21 01:34:48;;;;;;;5.13;0.77;;;;;;;7.06;100.00;99448.63;5049646;28;20478;-63
2023/12/21 01:37:13;;;;;;;3.70;0.67;;;;;;;7.10;100.00;99447.03;5049926;28;20187;-62
2023/12/21 01:39:39;;;;;;;3.53;0.90;;;;;;;7.12;100.00;99454.09;5049268;28;20496;-63
2023/12/21 01:42:04;;;;;;;4.87;0.80;;;;;;;7.14;100.00;99441.94;5050105;28;20033;-63
2023/12/21 01:44:30;;;;;;;4.10;0.57;;;;;;;7.17;100.00;99435.88;5050474;28;20106;-63
2023/12/21 01:46:55;;;;;;;4.23;0.90;;;;;;;7.23;100.00;99441.31;5050300;28;20037;-63
2023/12/21 01:49:21;;;;;;;2.77;0.63;;;;;;;7.25;100.00;99429.16;5049291;28;20440;-63
2023/12/21 01:51:47;;;;;;;3.17;0.60;;;;;;;7.26;100.00;99429.19;5049661;28;20041;-63
2023/12/21 01:54:13;;;;;;;4.20;0.77;;;;;;;7.28;100.00;99424.00;5049870;28;20037;-63
2023/12/21 01:56:39;;;;;;;3.20;0.60;;;;;;;7.29;100.00;99418.81;5049768;28;20607;-62
2023/12/21 01:59:04;;;;;;;2.97;0.60;;;;;;;7.30;100.00;99404.81;5050794;28;20045;-63
2023/12/21 02:01:30;;;;;;;4.32;0.77;;;;;;;7.32;100.00;99399.63;5069839;28;20504;-64
2023/12/21 02:03:55;;;;;;;2.73;0.50;;;;;;;7.34;100.00;99403.19;5069907;28;20028;-63
2023/12/21 02:06:22;;;;;;;2.13;0.50;;;;;;;7.34;100.00;99398.84;5069763;28;20396;-63
2023/12/21 02:08:47;;;;;;;4.30;0.73;;;;;;;7.34;100.00;99372.56;5069088;28;20032;-63
2023/12/21 02:11:12;;;;;;;3.40;0.80;;;;;;;7.35;100.00;99366.44;5069183;28;20055;-63
2023/12/21 02:13:38;;;;;;;4.60;0.50;;;;;;;7.35;100.00;99370.84;5069419;28;20045;-63
2023/12/21 02:16:12;;;;;;;3.38;0.50;;;;;;;7.41;100.00;99375.38;5073280;28;20033;-63
2023/12/21 02:18:37;;;;;;;3.20;0.65;;;;;;;7.42;100.00;99372.78;5073194;28;20029;-63
2023/12/21 02:21:04;;;;;;;2.00;0.33;;;;;;;7.42;100.00;99372.78;5072936;28;20041;-63
2023/12/21 02:25:43;;;;;;;3.72;0.68;;;;;;;7.45;100.00;99353.63;5107818;27;20407;-64
2023/12/21 02:28:08;;;;;;;2.90;0.60;;;;;;;7.48;100.00;99348.47;5107889;28;20040;-64
2023/12/21 02:30:34;;;;;;;1.67;0.30;;;;;;;7.49;100.00;99356.41;5106653;28;20419;-63
2023/12/21 02:32:59;;;;;;;2.20;0.50;;;;;;;7.51;100.00;99349.44;5107691;28;20036;-63
2023/12/21 02:35:24;;;;;;;2.50;0.50;;;;;;;7.51;100.00;99353.78;5107752;28;20039;-61
2023/12/21 02:37:50;;;;;;;2.60;0.50;;;;;;;7.52;100.00;99334.56;5107579;28;20123;-63
2023/12/21 02:40:15;;;;;;;2.45;0.50;;;;;;;7.50;100.00;99337.13;5105538;28;20517;-63
2023/12/21 02:42:40;;;;;;;2.40;0.40;;;;;;;7.52;100.00;99340.72;5107728;28;20561;-61
2023/12/21 02:45:06;;;;;;;2.60;0.50;;;;;;;7.53;100.00;99329.38;5107631;28;20039;-63
2023/12/21 02:47:31;;;;;;;2.65;0.60;;;;;;;7.54;100.00;99327.63;5107492;28;20522;-62
2023/12/21 02:49:57;;;;;;;2.27;0.50;;;;;;;7.54;100.00;99330.25;5106959;28;20467;-61
2023/12/21 02:52:22;;;;;;;2.60;0.40;;;;;;;7.59;100.00;99331.28;5107458;28;20052;-61
2023/12/21 02:54:48;;;;;;;3.40;0.57;;;;;;;7.58;100.00;99330.41;5107842;28;20036;-61
2023/12/21 02:57:13;;;;;;;2.77;0.60;;;;;;;7.59;100.00;99321.69;5107498;28;20122;-62
2023/12/21 02:59:42;;;;;;;2.23;0.50;;;;;;;7.62;100.00;99310.34;5106192;28;20119;-62
2023/12/21 03:02:07;;;;;;;2.47;0.50;;;;;;;7.61;100.00;99316.44;5107393;28;20358;-62
2023/12/21 03:04:33;;;;;;;3.43;0.70;;;;;;;7.61;100.00;99303.31;5107179;28;20032;-61
2023/12/21 03:06:58;;;;;;;2.00;0.40;;;;;;;7.63;100.00;99306.88;5107168;28;20369;-62
2023/12/21 03:09:23;;;;;;;2.43;0.50;;;;;;;7.64;100.00;99303.44;5103839;28;20046;-61
2023/12/21 03:11:49;;;;;;;2.23;0.40;;;;;;;7.66;100.00;99289.47;5105562;28;20031;-63
2023/12/21 03:14:15;;;;;;;2.43;0.50;;;;;;;7.67;100.00;99283.38;5107061;28;20035;-62
2023/12/21 03:16:40;;;;;;;3.03;0.50;;;;;;;7.69;100.00;99281.69;5106809;28;20036;-62
2023/12/21 03:19:05;;;;;;;2.70;0.50;;;;;;;7.71;100.00;99271.22;5105876;28;20036;-63
2023/12/21 03:21:31;;;;;;;2.20;0.40;;;;;;;7.73;100.00;99278.31;5106910;28;20552;-62
2023/12/21 03:23:56;;;;;;;2.50;0.52;;;;;;;7.75;100.00;99280.94;5106230;28;20036;-62
2023/12/21 03:26:22;;;;;;;5.30;0.57;;;;;;;7.76;100.00;99282.75;5106988;28;20384;-61
2023/12/21 03:28:47;;;;;;;5.00;0.70;;;;;;;7.76;100.00;99278.38;5106432;28;20036;-61
2023/12/21 03:31:16;;;;;;;2.67;0.50;;;;;;;7.78;100.00;99279.31;5107262;28;20605;-61
2023/12/21 03:33:41;;;;;;;3.03;0.55;;;;;;;7.80;100.00;99274.09;5107013;28;20508;-61
2023/12/21 03:36:06;;;;;;;2.13;0.40;;;;;;;7.81;100.00;99270.63;5098677;28;20040;-61
2023/12/21 03:38:32;;;;;;;3.40;0.50;;;;;;;7.85;100.00;99267.22;5092776;28;20038;-61
2023/12/21 03:40:57;;;;;;;2.57;0.50;;;;;;;7.86;100.00;99276.91;5092834;28;20282;-63
2023/12/21 03:43:22;;;;;;;3.47;0.70;;;;;;;7.88;100.00;99266.44;5092388;28;20119;-62
2023/12/21 03:45:48;;;;;;;4.83;0.67;;;;;;;7.90;100.00;99260.34;5079960;28;20500;-62
2023/12/21 03:48:13;;;;;;;3.00;0.50;;;;;;;7.91;100.00;99256.88;5089431;28;20159;-64
2023/12/21 03:50:38;;;;;;;2.47;0.40;;;;;;;7.93;100.00;99259.56;5087777;28;20443;-64
2023/12/21 03:53:07;;;;;;;3.00;0.53;;;;;;;7.96;100.00;99259.66;5092620;28;20366;-63
2023/12/21 03:55:32;;;;;;;3.42;0.70;;;;;;;7.97;100.00;99257.06;5092618;28;20028;-62
2023/12/21 03:57:58;;;;;;;4.13;0.60;;;;;;;7.98;100.00;99258.84;5090198;28;20024;-63
2023/12/21 04:00:23;;;;;;;4.40;0.53;;;;;;;7.98;100.00;99253.59;5097901;28;20039;-62
2023/12/21 04:02:48;;;;;;;2.67;0.50;;;;;;;7.99;100.00;99239.56;5080850;28;20123;-62
2023/12/21 04:05:14;;;;;;;2.23;0.40;;;;;;;8.01;100.00;99239.63;5076151;28;20039;-63
2023/12/21 04:07:40;;;;;;;5.68;0.60;;;;;;;8.02;100.00;99233.53;5090935;28;20036;-63
2023/12/21 04:10:05;;;;;;;3.10;0.63;;;;;;;8.05;100.00;99234.50;5090483;28;20643;-63
2023/12/21 04:12:31;;;;;;;2.20;0.40;;;;;;;8.07;100.00;99226.66;5091689;28;20040;-62
2023/12/21 04:14:56;;;;;;;3.07;0.60;;;;;;;8.09;100.00;99227.59;5091052;28;20156;-63
2023/12/21 04:17:22;;;;;;;2.67;0.60;;;;;;;8.11;100.00;99223.25;5091929;28;20397;-63
2023/12/21 04:19:47;;;;;;;2.83;0.50;;;;;;;8.13;100.00;99221.56;5091557;28;20024;-63
2023/12/21 04:22:13;;;;;;;3.13;0.83;;;;;;;8.13;100.00;99229.44;5092008;28;20036;-63
2023/12/21 04:26:59;;;;;;;4.13;0.90;;;;;;;8.19;100.00;99230.47;5004224;27;20361;-61
2023/12/21 04:29:24;;;;;;;3.50;0.73;;;;;;;8.21;100.00;99223.53;4997586;28;20110;-62
2023/12/21 04:31:50;;;;;;;3.15;0.60;;;;;;;8.24;100.00;99218.34;4982327;28;20035;-61
2023/12/21 04:34:15;;;;;;;2.67;0.53;;;;;;;8.30;100.00;99224.63;4977610;28;20034;-61
2023/12/21 04:36:40;;;;;;;3.27;0.63;;;;;;;8.34;100.00;99229.16;4984540;28;20069;-62
2023/12/21 04:39:06;;;;;;;4.40;0.63;;;;;;;8.35;100.00;99223.03;4984028;28;20133;-62
2023/12/21 04:41:31;;;;;;;5.10;0.80;;;;;;;8.37;100.00;99216.06;4984768;28;20155;-62
2023/12/21 04:43:56;;;;;;;2.70;0.60;;;;;;;8.41;100.00;99207.41;4983213;28;20130;-62
2023/12/21 04:46:22;;;;;;;2.67;0.50;;;;;;;8.45;100.00;99209.25;4984459;28;20031;-62
2023/12/21 04:48:47;;;;;;;3.67;0.70;;;;;;;8.46;100.00;99214.56;4983964;28;20035;-62
2023/12/21 04:51:17;;;;;;;3.27;0.70;;;;;;;8.49;100.00;99203.19;4984306;28;20036;-62
2023/12/21 04:53:42;;;;;;;3.08;0.68;;;;;;;8.50;100.00;99202.34;4984659;28;20027;-63
2023/12/21 04:56:08;;;;;;;3.22;0.70;;;;;;;8.55;100.00;99206.88;4984458;28;20100;-62
2023/12/21 04:58:33;;;;;;;2.90;0.50;;;;;;;8.57;100.00;99206.94;4984222;28;20118;-62
2023/12/21 05:00:58;;;;;;;3.27;0.60;;;;;;;8.60;100.00;99204.34;4990567;28;20534;-63
2023/12/21 05:03:24;;;;;;;3.05;0.60;;;;;;;8.62;100.00;99184.25;4984135;28;20130;-63
2023/12/21 05:05:49;;;;;;;2.63;0.50;;;;;;;8.65;100.00;99205.38;4984012;28;20456;-62
2023/12/21 05:08:15;;;;;;;2.47;0.50;;;;;;;8.68;100.00;99197.56;4984213;28;20049;-63
2023/12/21 05:10:41;;;;;;;6.13;0.50;;;;;;;8.72;100.00;99199.41;4983580;28;20196;-62
2023/12/21 05:13:06;;;;;;;2.67;0.60;;;;;;;8.77;100.00;99199.50;4984124;28;20035;-63
2023/12/21 05:15:31;;;;;;;2.50;0.60;;;;;;;8.78;100.00;99189.00;4984292;28;20106;-62
2023/12/21 05:17:57;;;;;;;2.60;0.60;;;;;;;8.81;100.00;99182.94;4984008;28;20122;-62
2023/12/21 05:20:22;;;;;;;2.20;0.50;;;;;;;8.82;100.00;99189.97;4983466;28;20484;-62
2023/12/21 05:22:48;;;;;;;2.43;0.40;;;;;;;8.82;100.00;99180.34;4983955;28;20165;-62
2023/12/21 05:25:16;;;;;;;2.30;0.50;;;;;;;8.82;100.00;99175.06;4983518;28;20042;-63
2023/12/21 05:32:23;;;;;;;2.72;0.40;;;;;;;8.82;100.00;99163.66;5067187;28;20365;-63
2023/12/21 05:34:48;;;;;;;2.60;0.43;;;;;;;8.82;100.00;99154.03;5067139;28;20029;-63
2023/12/21 05:37:14;;;;;;;2.73;0.57;;;;;;;8.84;100.00;99157.56;5066977;28;20806;-64
2023/12/21 05:39:39;;;;;;;2.23;0.43;;;;;;;8.84;100.00;99147.03;5058277;28;20220;-63
2023/12/21 05:42:05;;;;;;;2.67;0.50;;;;;;;8.85;100.00;99140.00;5047071;28;20490;-61
2023/12/21 05:44:30;;;;;;;2.55;0.60;;;;;;;8.85;100.00;99140.91;5047134;28;20045;-61
2023/12/21 05:49:21;;;;;;;3.03;0.50;;;;;;;8.85;100.00;99140.00;4997871;28;20777;-62
2023/12/21 05:51:48;;;;;;;2.63;0.50;;;;;;;8.83;100.00;99132.06;4984836;28;20034;-63
2023/12/21 05:54:14;;;;;;;2.45;0.47;;;;;;;8.87;100.00;99131.31;4984700;28;20088;-62
2023/12/21 05:56:41;;;;;;;2.85;0.57;;;;;;;8.89;100.00;99129.59;4984309;28;20042;-62
2023/12/21 05:59:06;;;;;;;2.58;0.40;;;;;;;8.89;100.00;99124.31;4985507;28;20039;-62
2023/12/21 06:01:33;;;;;;;4.60;0.50;;;;;;;8.89;100.00;99116.41;4989477;28;20513;-62
2023/12/21 06:03:58;;;;;;;2.28;0.40;;;;;;;8.86;100.00;99105.84;4984291;28;20034;-62
2023/12/21 06:06:23;;;;;;;2.50;0.50;;;;;;;8.84;100.00;99096.13;4984811;28;20030;-62
2023/12/21 06:08:49;;;;;;;2.00;0.40;;;;;;;8.86;100.00;99095.31;4983469;28;20633;-61
2023/12/21 06:11:14;;;;;;;2.27;0.50;;;;;;;8.86;100.00;99079.50;4984439;28;20118;-61
2023/12/21 06:13:39;;;;;;;3.20;0.40;;;;;;;8.88;100.00;99084.81;4984170;28;20501;-61
2023/12/21 06:16:11;;;;;;;2.67;1.17;;;;;;;8.90;100.00;99083.97;4984036;28;20164;-61
2023/12/21 06:18:37;;;;;;;3.00;0.60;;;;;;;8.93;100.00;99067.38;4984044;28;20038;-62
2023/12/21 06:21:03;;;;;;;2.80;0.67;;;;;;;8.93;100.00;99065.59;4982732;28;20080;-62
2023/12/21 06:23:28;;;;;;;2.75;0.70;;;;;;;8.92;100.00;99074.38;4982724;28;20038;-62
2023/12/21 06:25:53;;;;;;;2.33;0.43;;;;;;;8.92;100.00;99065.59;4982449;28;20541;-62
2023/12/21 06:28:21;;;;;;;2.57;0.57;;;;;;;8.91;100.00;99064.69;4982427;28;20126;-61
2023/12/21 06:30:46;;;;;;;2.53;0.55;;;;;;;8.89;100.00;99052.34;4989908;28;20094;-62
2023/12/21 06:33:12;;;;;;;2.28;0.40;;;;;;;8.82;100.00;99040.84;4982304;28;20041;-62
2023/12/21 06:35:37;;;;;;;2.57;0.40;;;;;;;8.76;100.00;99043.31;4982513;28;20039;-62
2023/12/21 06:40:26;;;;;;;3.20;0.63;;;;;;;8.78;100.00;99036.34;5064125;28;20422;-63
2023/12/21 06:42:51;;;;;;;3.63;0.50;;;;;;;8.73;100.00;99038.00;5044768;28;20071;-62
2023/12/21 06:45:16;;;;;;;2.87;0.50;;;;;;;8.66;100.00;99030.81;5050509;28;20104;-63
2023/12/21 06:47:42;;;;;;;3.75;0.45;;;;;;;8.62;100.00;99036.88;5067125;28;20037;-63
2023/12/21 06:50:08;;;;;;;4.00;0.60;;;;;;;8.59;100.00;99021.00;5066741;28;20153;-64
2023/12/21 06:52:33;;;;;;;2.10;0.45;;;;;;;8.55;100.00;99003.41;5067130;28;20044;-64
2023/12/21 06:54:59;;;;;;;3.20;0.30;;;;;;;8.49;100.00;99000.63;5066996;28;20590;-63
2023/12/21 06:57:24;;;;;;;2.67;0.40;;;;;;;8.49;100.00;98998.88;5067029;28;20078;-64
2023/12/21 06:59:49;;;;;;;3.87;0.40;;;;;;;8.46;100.00;99000.56;5066184;28;20033;-63
2023/12/21 07:02:15;;;;;;;2.40;0.43;;;;;;;8.42;100.00;98988.22;5066862;28;20131;-63
2023/12/21 07:04:40;;;;;;;2.10;0.40;;;;;;;8.38;100.00;98981.13;5066755;28;20032;-63
2023/12/21 07:09:20;;;;;;;2.25;0.40;;;;;;;8.34;100.00;98967.00;5061128;28;20424;-61
2023/12/21 07:11:45;;;;;;;2.77;0.40;;;;;;;8.34;100.00;98972.25;5047205;28;20037;-60
2023/12/21 07:14:11;;;;;;;2.95;0.70;;;;;;;8.33;100.00;98959.09;5047243;28;20037;-61
2023/12/21 07:16:36;;;;;;;2.57;0.47;;;;;;;8.30;100.00;98935.34;5047033;28;20072;-61
2023/12/21 07:19:02;;;;;;;9.47;0.77;;;;;;;8.28;100.00;98943.19;5046649;28;20202;-61
2023/12/21 07:21:28;;;;;;;2.13;0.40;;;;;;;8.28;100.00;98934.41;5046935;28;20299;-63
2023/12/21 07:23:54;;;;;;;2.85;0.60;;;;;;;8.44;100.00;98939.13;5047004;28;20057;-63
2023/12/21 07:26:19;;;;;;;3.73;0.50;;;;;;;9.01;100.00;98928.88;5046490;28;20137;-60
2023/12/21 07:28:44;;;;;;;2.07;0.30;;;;;;;9.28;100.00;98926.69;5046486;28;20037;-60
2023/12/21 07:31:11;;;;;;;2.53;0.50;;;;;;;9.57;100.00;98903.44;5047261;28;20150;-60
2023/12/21 07:33:37;;;;;;;2.55;0.40;;;;;;;9.84;100.00;98903.88;5047231;28;20049;-58
2023/12/21 07:36:03;;;;;;;2.45;0.43;;;;;;;9.89;100.00;98898.66;5047261;28;20133;-60
2023/12/21 07:38:28;;;;;;;2.30;0.43;;;;;;;10.11;100.00;98879.66;5046908;28;20124;-60
2023/12/21 07:40:53;;;;;;;2.15;0.50;;;;;;;10.26;100.00;98861.38;5046509;28;20041;-60
2023/12/21 07:43:19;;;;;;;2.57;0.47;;;;;;;10.16;100.00;98850.72;5031999;28;20136;-61
2023/12/21 07:45:44;;;;;;;2.77;0.40;;;;;;;10.24;100.00;98849.06;5035191;28;20041;-60
2023/12/21 07:48:10;;;;;;;2.47;0.43;;;;;;;10.46;100.00;98850.19;5046102;28;20045;-60
2023/12/21 07:50:35;;;;;;;2.75;0.43;;;;;;;10.33;100.00;98834.22;5045905;28;20116;-63
2023/12/21 07:53:00;;;;;;;2.27;0.30;;;;;;;9.96;100.00;98829.34;5045975;28;20048;-63
2023/12/21 07:55:26;;;;;;;2.43;0.43;;;;;;;9.56;100.00;98817.38;5045486;28;20124;-64
2023/12/21 07:57:51;;;;;;;2.23;0.40;;;;;;;9.28;100.00;98808.16;5044451;28;20175;-64
2023/12/21 08:00:17;;;;;;;2.78;0.50;;;;;;;9.09;100.00;98796.47;5052855;28;20037;-63
2023/12/21 08:02:44;;;;;;;2.63;0.50;;;;;;;8.97;100.00;98790.13;5046127;28;20045;-64
2023/12/21 08:05:11;;;;;;;2.35;0.40;;;;;;;8.85;100.00;98774.13;5044498;28;20043;-66
2023/12/21 08:07:37;;;;;;;2.45;0.50;;;;;;;8.79;100.00;98769.66;5046381;28;20037;-65
2023/12/21 08:10:03;;;;;;;2.70;0.50;;;;;;;8.72;100.00;98759.91;5045913;28;20056;-65
2023/12/21 08:12:28;;;;;;;3.13;0.70;;;;;;;8.69;100.00;98762.47;5045855;28;20037;-65
2023/12/21 08:14:53;;;;;;;1.85;0.30;;;;;;;8.68;100.00;98752.81;5045908;28;20041;-65
2023/12/21 08:17:19;;;;;;;2.67;0.70;;;;;;;8.64;100.00;98737.81;5045897;28;20709;-61
2023/12/21 08:19:45;;;;;;;2.37;0.40;;;;;;;8.62;100.00;98735.19;5037469;28;20324;-61
2023/12/21 08:22:10;;;;;;;2.30;0.40;;;;;;;8.60;100.00;98729.00;5032725;28;20033;-64
2023/12/21 08:24:36;;;;;;;2.30;0.40;;;;;;;8.59;100.00;98713.19;5032904;28;20029;-63
2023/12/21 08:27:01;;;;;;;2.57;0.50;;;;;;;8.55;100.00;98721.88;5032301;28;20048;-61
2023/12/21 08:29:26;;;;;;;2.55;0.40;;;;;;;8.54;100.00;98704.31;5031982;28;20041;-61
2023/12/21 08:31:52;;;;;;;2.30;0.50;;;;;;;8.53;100.00;98699.94;5031957;28;20061;-62
2023/12/21 08:34:17;;;;;;;1.67;0.33;;;;;;;8.50;100.00;98684.09;5032697;28;20580;-65
2023/12/21 08:36:43;;;;;;;2.63;0.52;;;;;;;8.49;100.00;98674.41;5032391;28;20091;-66
2023/12/21 08:39:09;;;;;;;2.00;0.47;;;;;;;8.49;100.00;98674.41;5029030;28;20125;-63
2023/12/21 08:41:34;;;;;;;2.10;0.33;;;;;;;8.45;100.00;98657.72;5032284;28;20033;-62
2023/12/21 08:43:59;;;;;;;2.33;0.40;;;;;;;8.46;100.00;98653.34;5032146;28;20048;-63
2023/12/21 08:46:25;;;;;;;2.07;0.40;;;;;;;8.45;100.00;98646.31;5032543;28;20678;-68
2023/12/21 08:48:50;;;;;;;1.77;0.30;;;;;;;8.45;100.00;98643.69;5031261;28;20486;-64
2023/12/21 08:51:16;;;;;;;2.00;0.40;;;;;;;8.45;100.00;98635.78;5032060;28;20057;-60
2023/12/21 08:53:44;;;;;;;3.63;0.40;;;;;;;8.48;100.00;98617.44;5032264;28;20033;-63
2023/12/21 08:56:10;;;;;;;1.70;0.30;;;;;;;8.49;100.00;98627.06;5032114;28;20456;-66
2023/12/21 08:58:36;;;;;;;1.85;0.30;;;;;;;8.48;100.00;98610.44;5031358;28;20033;-62
2023/12/21 09:01:02;;;;;;;1.00;0.20;;;;;;;8.49;100.00;98608.66;5038714;28;20061;-62
2023/12/21 09:03:27;;;;;;;2.27;0.40;;;;;;;8.50;100.00;98607.81;5031714;28;20048;-62
2023/12/21 09:05:53;;;;;;;4.10;0.32;;;;;;;8.50;100.00;98585.00;5031846;28;20117;-62
2023/12/21 09:08:18;;;;;;;1.70;0.30;;;;;;;8.51;100.00;98576.28;5031627;28;20451;-63
2023/12/21 09:10:44;;;;;;;1.98;0.43;;;;;;;8.47;100.00;98573.56;5030890;28;20413;-68
2023/12/21 09:13:09;;;;;;;2.57;0.40;;;;;;;8.53;100.00;98573.66;5029695;28;20064;-62
2023/12/21 09:15:36;;;;;;;1.50;0.30;;;;;;;8.54;100.00;98567.53;5031619;28;20087;-62
2023/12/21 09:18:03;;;;;;;1.52;0.30;;;;;;;8.56;100.00;98557.91;5031504;28;20037;-62
2023/12/21 09:20:28;;;;;;;1.85;0.32;;;;;;;8.57;100.00;98552.69;5031142;28;20045;-61
2023/12/21 09:22:54;;;;;;;1.30;0.30;;;;;;;8.58;100.00;98546.53;5020699;28;20037;-62
2023/12/21 09:25:19;;;;;;;1.30;0.30;;;;;;;8.60;100.00;98539.56;5016447;28;20401;-62
2023/12/21 09:27:44;;;;;;;1.93;0.33;;;;;;;8.64;100.00;98545.75;5031576;28;20045;-63
2023/12/21 09:30:10;;;;;;;1.50;0.30;;;;;;;8.64;100.00;98516.78;5030515;28;20405;-62
2023/12/21 09:32:38;;;;;;;1.98;0.30;;;;;;;8.64;100.00;98519.44;5030753;28;20033;-63
2023/12/21 09:35:03;;;;;;;2.70;0.30;;;;;;;8.65;100.00;98516.81;5031447;28;20047;-62
2023/12/21 09:37:29;;;;;;;1.87;0.30;;;;;;;8.67;100.00;98522.13;5029790;28;20030;-62
2023/12/21 09:39:56;;;;;;;2.50;0.40;;;;;;;8.69;100.00;98504.59;5030666;28;20044;-61
2023/12/21 09:42:23;;;;;;;0.57;0.10;;;;;;;8.71;100.00;98491.47;5031236;28;20500;-62
2023/12/21 09:44:49;;;;;;;1.83;0.30;;;;;;;8.70;100.00;98485.31;5030882;28;20033;-62
2023/12/21 09:47:18;;;;;;;1.85;0.30;;;;;;;8.69;100.00;98478.28;5030842;28;20040;-63
2023/12/21 09:49:46;;;;;;;1.07;0.20;;;;;;;8.68;100.00;98467.75;5029395;28;20041;-62
2023/12/21 09:52:12;;;;;;;0.85;0.20;;;;;;;8.67;100.00;98474.75;5030867;28;20042;-62
2023/12/21 09:54:42;;;;;;;1.97;0.40;;;;;;;8.66;100.00;98462.47;5030847;28;20036;-64
2023/12/21 09:57:08;;;;;;;1.65;0.30;;;;;;;8.65;100.00;98451.06;5030559;28;20025;-63
2023/12/21 09:59:34;;;;;;;1.85;0.40;;;;;;;8.66;100.00;98449.31;5035835;28;20037;-63
2023/12/21 10:02:00;;;;;;;1.33;0.20;;;;;;;8.66;100.00;98430.88;5030108;28;20044;-62
2023/12/21 10:04:26;;;;;;;0.75;0.20;;;;;;;8.65;100.00;98408.06;5030564;28;20029;-63
2023/12/21 10:06:51;;;;;;;2.07;0.30;;;;;;;8.62;100.00;98390.50;5030898;28;20044;-63
2023/12/21 10:09:17;;;;;;;1.43;0.30;;;;;;;8.62;100.00;98410.69;5029829;28;20045;-62
2023/12/21 10:11:43;;;;;;;2.72;0.32;;;;;;;8.63;100.00;98401.94;5030694;28;20037;-63
2023/12/21 10:14:19;;;;;;;1.67;0.40;;;;;;;8.62;100.00;98390.50;5030396;28;20037;-63
2023/12/21 10:16:44;;;;;;;1.70;0.30;;;;;;;8.63;100.00;98387.00;5030870;28;20037;-62
2023/12/21 10:19:11;;;;;;;2.20;0.40;;;;;;;8.61;100.00;98358.91;5021933;28;20036;-62
2023/12/21 10:21:38;;;;;;;2.10;0.40;;;;;;;8.61;100.00;98369.44;5030167;28;20504;-62
2023/12/21 10:24:05;;;;;;;1.98;0.30;;;;;;;8.62;100.00;98366.84;5030818;28;20025;-62
2023/12/21 10:26:31;;;;;;;1.60;0.30;;;;;;;8.66;100.00;98346.69;5030299;28;20413;-65
2023/12/21 10:28:56;;;;;;;1.47;0.30;;;;;;;8.69;100.00;98333.56;5029434;28;20045;-60
2023/12/21 10:31:21;;;;;;;2.03;0.30;;;;;;;8.73;100.00;98330.13;5030430;28;20112;-60
2023/12/21 10:33:47;;;;;;;1.40;0.30;;;;;;;8.78;100.00;98317.84;5030435;28;20116;-61
2023/12/21 10:36:13;;;;;;;1.33;0.23;;;;;;;8.82;100.00;98309.16;5030495;28;20380;-60
2023/12/21 10:38:40;;;;;;;1.52;0.30;;;;;;;8.86;100.00;98286.34;5030058;28;20048;-60
2023/12/21 10:41:06;;;;;;;1.87;0.30;;;;;;;8.86;100.00;98276.72;5030193;28;20112;-61
2023/12/21 10:43:34;;;;;;;1.38;0.28;;;;;;;8.85;100.00;98282.84;5030131;28;20128;-60
2023/12/21 10:45:59;;;;;;;2.47;0.37;;;;;;;8.85;100.00;98271.44;5030340;28;20124;-61
2023/12/21 10:48:28;;;;;;;1.52;0.30;;;;;;;8.84;100.00;98262.66;5029843;28;20125;-60
2023/12/21 10:50:54;;;;;;;1.73;0.40;;;;;;;8.86;100.00;98257.41;5029783;28;20198;-60
2023/12/21 10:53:22;;;;;;;1.60;0.30;;;;;;;8.90;100.00;98220.59;5030044;28;20030;-60
2023/12/21 10:55:51;;;;;;;1.90;0.30;;;;;;;8.95;100.00;98215.34;5029986;28;20137;-60
2023/12/21 10:58:17;;;;;;;2.58;1.25;;;;;;;8.97;100.00;98211.88;5030304;28;20031;-60
2023/12/21 11:00:43;;;;;;;1.88;0.30;;;;;;;8.99;100.00;98204.84;5036872;28;20107;-61
2023/12/21 11:03:09;;;;;;;2.30;0.30;;;;;;;8.99;100.00;98194.31;5030127;28;20060;-58
2023/12/21 11:05:37;;;;;;;1.10;0.20;;;;;;;8.98;100.00;98175.88;5030155;28;20030;-60
2023/12/21 11:08:03;;;;;;;1.73;0.30;;;;;;;8.99;100.00;98178.53;5026017;28;20041;-61
2023/12/21 11:10:29;;;;;;;2.47;0.32;;;;;;;8.99;100.00;98183.78;5009919;28;20080;-61
2023/12/21 11:12:55;;;;;;;2.35;0.40;;;;;;;9.01;100.00;98173.28;5028437;28;20053;-61
2023/12/21 11:15:21;;;;;;;1.87;0.40;;;;;;;9.02;100.00;98151.38;5030304;28;20107;-61
2023/12/21 11:18:05;;;;;;;1.17;0.28;;;;;;;9.07;100.00;98149.63;5030381;28;20037;-60
2023/12/21 11:20:37;;;;;;;1.67;0.30;;;;;;;9.08;100.00;98140.84;5029527;28;20256;-61
2023/12/21 11:23:05;;;;;;;1.98;0.30;;;;;;;9.11;100.00;98138.25;5018397;28;20204;-60
2023/12/21 11:25:31;;;;;;;1.60;0.30;;;;;;;9.12;100.00;98147.03;5016485;28;20051;-59
2023/12/21 11:27:59;;;;;;;1.48;0.30;;;;;;;9.14;100.00;98122.44;5029989;28;20068;-59
2023/12/21 11:30:28;;;;;;;2.67;0.40;;;;;;;9.17;100.00;98119.84;5029505;28;20069;-60
2023/12/21 11:33:06;;;;;;;2.08;0.40;;;;;;;9.22;100.00;98106.72;5029557;28;20394;-60
2023/12/21 11:35:32;;;;;;;1.48;0.30;;;;;;;9.23;100.00;98104.06;5029820;28;20516;-59
2023/12/21 11:38:00;;;;;;;1.80;0.30;;;;;;;9.24;100.00;98090.03;5029815;28;20037;-60
2023/12/21 11:40:26;;;;;;;1.92;0.52;;;;;;;9.28;100.00;98069.84;5028071;28;20053;-59
2023/12/21 11:42:54;;;;;;;2.03;0.30;;;;;;;9.28;100.00;98075.09;5012286;28;20038;-60